http://www.master-dojave21.com/wp-content/uploads/2014/09/BANERMASTER.gif  

  

  

  free soccer pick, fixed matches ht-ft, 100% sure matches, free tips every day, vip tips1x2, fixed matches, fixed matches 100% sure, free tips 100% sure


If you want to make money every weekend – this is the offer for you. The big odd fixed matches are 100% safe and with odd from 15.00 to 30.00. There are people in this team that work 24/7 and they will find for you one sure big odd fixed matches in every weekend of the year. Be part of this offer. Our archives are real and every big odd fixed matches goes to our archive. Every weekend big odd fixed matches. Every weekend win. 

With us profit is guaranteed!!!

NEXT FIXED GAME 

Date: 10.12.2016 (Saturday)

Pick: ???    Odd: 20.00-40.00


All interested contact us on email:megamatch1x2@gmail.com

Price: CONTACT US ON EMAIL


Payment methods : 
Western Union, MoneyGram, moneybookers, , Neteller…

ARCHIVE  FIXED MATCH

DATE MATCH TIP ODD HT/FT
29.09.2015  Plymouth – Barnet 2/1 30.00 HT 0;1 / FT 2:1 
03.10.2015  Berwick – East Stirlingshire 2/1 30.00 HT O:1 / FT 2:1 
06.10.2015 Fleetwood Town- Shrewsbury 2/1 30.00 HT O:1 / FT 2:1 
10.10.2015 Italy U19 – FYR Macedonia U19 2/1 30.00 HT 1:2 / FT 3:2
13.10.2015 Eastleigh – Forest Green 2/1 30.00 HT  1:2 / FT 3:2
17.10.2015 Scunthorpe -Shrewsbury 2/1 35.00 HT  0:1 / FT  2:1
20.10.2015 Brighton -Bristol City 2/1 30.00 HT  0:1 / FT  2:1
24.10.2015 Fulham- Reading 2/1 35.00 HT  0:1 / FT  4:2
27.10.2015 Salzburg -Ried 2/1 30.00 HT  1:2 / FT  4:2
31.10.2015 Bohemians 1905- Jihlava 2/1 30.00 HT  0:1 / FT  2:1
03.11.2015 Geylang- Brunei DPMM 2/1 30.00 HT  0:1 / FT  2:1
07.11.2015 R. Sociedad B – Getafe B 2/1 30.00 HT  0:1 / FT  4:1
14.11.2015 Chesterfield – Oldham 1/2 35.00 HT  1:0 / FT  1:2
21.11.2015 Giresunspor- Karsiyaka 2/1 30.00 HT  0:1 / FT  3:1
24.11.2015 Plymouth – Leyton Orient 2/1 30.00 HT  0:1 / FT  1:1
28.11.2015 Cambridge Utd -Notts County 2/1 30.00 HT  0:1 / FT  3:1
02.12.2015 Oliveirense -Gil Vicente 1/2 35.00 HT  1:0 / FT  1:2
05.12.2015 Arminia Bielefeld -Karlsruher 2/1 30.00 HT  0:1 / FT  2:1
09.12.2015 Hamburger SV II- Luneburger Hansa 2/1 26.00 HT  0:2 / FT  3:2
12.12.2015 Hamilton -Ross County 1/2 29.00 HT  1:0 / FT  1:3
15.12.2015 B. Monchengladbach -Werder Bremen 1/2 35.00 HT 1:0 /FT 3:4
19.12.2015 Koln-Dortmund 2/1 41.00 HT 0:1 / FT 2:1
26.12.2015 Airdrieonians- Peterhead 1/2 23.00 HT 2:1 / FT 3:4
02.01.2016 Preston-Rotherham 2/1 29.00 HT 0:1 / FT 2:1
09.01.2016 Montrose -East Stirlingshire 2/1 21.00 HT 0:2 / FT 3:2
12.01.2016 Ipswich-Leeds 2/1 25.00 HT 0:1 / FT 2:1
16.01.2016 AFC Wimbledon- Mansfield 2/1 29.00 HT 0:1 / FT 3:1
19.01.2016 Jagiellonia (Pol)- Suwalki (Pol) 1/2 41.00 HT 1:0 / FT 1:2
23.01.2016 Burton-Shrewsbury 1/2 41.00 HT 1:0 / FT 1:2
26.01.2016 Telford-Hednesford 1/2 29.00 HT 1:0 / FT 1:3
30.01.2016 Charleroi -KV Mechelen 2/1 22.00 HT 1:2 / FT 3:2
02.02.2016 Harrogate-Stockport 2/1 21.00 HT 0:1 / FT 2:1
06.02.2016 Gosport – Maidenhead 2/1 23.00 HT O:1 / FT 2:1
09.02.2016 FAC Wien (Aut) -Schwechat (Aut) 2/1 19.00 HT 0:1 / FT 3:2
13.02.2016 Zlin- Sparta Prague 1/2 20.00 HT 1:0 / FT 1:2
16.02.2016 Hednesford- North Ferriby 1/X 15.00 HT 1:0 / FT 1:1
20/02.2016 Mansfield -Dagenham & Red. 2/1 23.00 HT 0:1 / FT 3:2
23.02.2016 Gosport-Dartford 1/2 29.00 HT 1:0 / FT 1:3
27.02.2016 Crewe-Barnsley 1/2 23.00 HT 1:0 /FT 1:2
01.03.2016  Dusseldorf-Bochum 1/2 29.00 HT 1:0 /FT 1:3
05.03.2016 St. Liege- Genk 2/1 25.00 HT 0:1 / FT 2:1
08.03.2016 Wattenscheid- Erndtebruck 2/1 23.00 HT 0:1 / FT 2:1
12.03.2016 Ascoli-Avellino 1/2 35.00 HT 3:2 / FT 3:4
15.03.2016 Jablonec -Dukla Prague 2/1 25.00 HT 0:1 / FT 2:1
19.03.2016 Walsall-Colchester 2/1 25.00 HT 0:1 / FT 2:1
23.03.2016 Ramnicu Valcea- Pancota 2/1 30.00 HT 0:1 / FT 2;1
26.03.2016 Clyde-Arbroath 1/2 35.00 HT 1:0 / FT 1;2
02.04.2016 Chesterfield – Port Vale 2/1 30.00 HT 0:1 / FT 4:2
05.04.2016 Reading- Nottingham 2/1 25.00 HT 0:1 / FT 2:1
09.04.2016 Apollon-Omonia 1/2 34.00 HT 1:0 / FT 1:2
13.04.2016 SC Farense -FC Porto B 1/2 30.00 HT 1:0 / FT 1:2
16.04.2016 Leeds-Reading 2/1 29.00 HT 0;1 / FT 3:2
19.04.2016 Bristol City -Derby 1/2 30.00 HT 2:1 / FT 2:3
23.04.2016 Cherno More -Slavia Sofia 2/1 29.00 HT 1:2 / FT 3:2
30.04.2016 Barnet – Yeovil 1/2 35.00 HT 1:0 / FT 3:4
07.05.2016 Crystal Palace – Stoke City 2/1 26.00 HT 0:1 / FT 2:1
14.05.2016 Oostende- Genk 2/1 26.00 HT 0:1 / FT 2:1
21.05.2016 Meuselwitz -RB Leipzig II 2/1 25.00 HT 0:1 / FT 2:1
28.05.2016 Rovaniemi-SJK 1/2 40/00 HT 1:0  FT 2:3
04.06.2016 Sirius-Trelleborgs 2/1 20.00 HT 0:1 / FT 2:1
11.06.2016 Justo Jose de Urquiza- Midland 2/1 26.00 HT 0:1 / FT 2:1
18.06.2016 SJK-HJK 1/2 35.00 HT 2:1 / FT 2:3
25.06.2016 Zrinjski (Bih)- RNK Split (Cro) 2/1 25.00 HT 0:1 / FT 4:2
02.07.2016 Haugesund – Start 2/1 20.00 HT 0:1 / FT 2:1
10.07.2016 Portuguesa-Carabobo 2/1 30.00 HT 0:1 / FT 2:1
16.07.2016 Valenciennes (Fra)- Waregem (Bel) 2/1 30.00 HT 0:1 / FT 2:1
23.07.2016 Vitesse (Ned)- FC Porto (Por) 1/2 25.00 HT 1:0 /FT 1:2
30.07.2016 VfB Stuttgart (Ger)- Greuther Furth (Ger) 2/1 25.00 HT 0:1 / FT 3:1
06.08.2016 Utrecht- PSV 1/2 20.00 HT 1:0 / FT 1:2
09.08.2016 Dover Ath. -Boreham Wood 1/2 41.00 HT 1:0 / FT 1:4
13.08.2016 Hamilton-Kilmarnock 1/2 34.00 HT 1:0 / FT 1:2
16.08.2016 Margate-Hampton 1/2 30.00 HT 1:0 / FT 2:4
20.08.2016 Bolton -Fleetwood Town 2/1 25.00 HT 0:1 / FT 2:1
23.08.2016 Matlock Town – Sutton Coldfield 2/1 30.00 HT 0:1 / FT 3:1
27.09.2016 Macclesfield -Lincoln City 1/2 30.00 HT 1:0 / FT 1:2
30.08.2016 Blackpool-Cheltenham 2/1 30.00 HT 0:1 /HT 2:1
03.09.2016 Mirandes -Cadiz CF 2/1 30.00 HT 0:2 / FT 3:2
06.09.2016 St. Patricks- Bray 1/2 40.00  HT 1:0 / FT 1:2
10.09.2016 Belenenses-Nacional 2/1 29.00 HT 0:1 / FT 2:1
13.09.2016 Chorley-Salford 2/1 30.00 HT 0:1 / FT 2:1
17.09.2016 Charlton -AFC Wimbledon 1/2 35.00 HT 1:0 / FT 1:2
20.09.2016 Swindon- Bristol Rovers 1/2 30.00 HT 1:0 / FT 1:2
24.09.2016 Sheffield Wed -Nottingham 2/1 26.00 HT 0:1 / FT 2:1
27.09.2016 Accrington-Mansfield 2/X 17.00 HT 0:1 / FT 1:1
01.10.2016 Bristol City -Nottingham 2/1 26.00 HR 0:1 /FT 2:1
04.10.2016 Cheltenham -Everton U23 2/1 26.00 HT 0;1 / FT 2:1
08.10.2016 Gillingham FC- Oldham 1/2 34.00 HT 1:0 / FT 1/2
11.10.2016 Italy U20 -Switzerland U20 1/2 41.00 HT 2:1 / FT 2:4
15.10.2016 Scunthorpe -Milton Keynes Dons 2/1 26.00 HT 0:1 / FT 2:1
18.10.2016 Woking -Torquay 2/1 23.00 HT 0:1 / FT 2:1
22.10.2016 Giresunspor- Boluspor 1/2 30.00 HT 1:0/ FT 1:2
25.10.2016 Altrincham -Bradford PA 1/2 34.00 HT 1:0 / FT 2:3
29.10.2016 Barnet-Hartlepool 2/1 26.00 HT 0;1 / FT 3:2
01.11.2016 Bristol Rovers- Fleetwood Town 2/1 26.00 HT 0:1 / FT 2:1
05.11.2016 Basel- Lausanne 2/1 20.00 HT 0;1 / FT 2:1
08.11.2016 Chelsea U23 -Oxford Utd 1/X 15.00 HT 1:0 / FT 1:1
12.11.2016 Gillingham FC -Northampton 2/1 30.00 HT 0:1 / FT 2:1
15.11.2016 Al-Ittifaq -Al-Najma 1/2 25.00 HT 4:2 / FT 5:6
19.11.2016 Stockport- Bradford PA 1/2 41.00 HT 1:0/ FT 1;2
22.11.2016 Southend-Swindon 1/X 15.00 HT 1:0 / FT 1:1
26.11.2016 Brighton-Fulham 2/1 26.00 HT 0:1 / FT 2:1
29.11.2016 Sportivo Barracas- Midland 2/1 29.00 HT 0:1 / FT 2:1
03.12.2016 Motherwell-Celtic 1/2 20.00 HT 2:0 / FT 3:4
06.12.2016 Yeovil- Milton Keynes Dons 2/1 30.00 HT 0:1 / FT 4:1
10.12.2016 ??? ??? ??? ???

VIP TICKET OFFER

We are leadng a way of business where clients can’t make any kind of mistake and loss. Number of buyers of this ticket is limited to 10 people, in order to protect the teams and team players, and also to prevent over betting in the bookmakers.

NEXT TICKET: 10/12/2016

100% Safe bet ticket, odd around and more 40.00-700.00

Guaranteed profit!

If you have any questions, don’t hesitate to contact us at anytime.

Contact e-mail:megamatch1x2@gmail.com

DATE  MATCH    TIP ODD FT
10.12.2016
10.12.2016
10.12.2016
10.12.2016
DATE  MATCH    TIP ODD FT
06.12.2016 Doncaster-Blackpool 1/X 15.00 0:1/1:1
06.12.2016 Southend- Oxford Utd X 3.40 1:1
06.12.2016 Yeovil -Milton Keynes Dons 1 3.10 4:1
06.12.2016 Berwick- Stirling 1 2.40 3:2
DATE  MATCH    TIP ODD FT
03.12.2016 Debrecen-Videoton X-2 6.00 0:0/0:2
03.12.2016 Novara -Vicenza X-1 5.00 1:1/2:1
03.12.2016 FC Porto -Braga X-1 4.00 0:0/1:0
03.12.2016 Kilmarnock- Dundee FC 1-1 4.70 1:0/2:0
DATE  MATCH    TIP ODD FT
29.11.2016 Gijon-Eibar 2-2 4.75 0:1/1:2
29.11.2016 Albion Rovers -Queen of South 1-1 6.00 1:0/2:1
29.11.2016 FC Viitorul -CSM Iasi X-1 4.80 0:0/1:0
29.11.2016 Varzim-Setubal 1 3.80 1:0
DATE  MATCH    TIP ODD FT
26.11.2016 Bury -Millwall X-2 5.50 0:0/2:3
26.11.2016 Chesterfield- Bristol Rovers 1-1 6.00 2:1/3:2
26.11.2016 Swindon-Bradford 1-1 6.00 1:0/1:0
26.11.2016 Exeter-Luton X 3.40 0:0
DATE  MATCH    TIP ODD FT
22.11.2016 Fleetwood Town- Shrewsbury 1-1 3.60 1:0/3:0
22.11.2016 Peterborough-Scunthorpe 2-2 5.00 0:1/0:2
22.11.2016 Sheffield Utd -Bury X-1 4.80 0:0/1:0
22.11.2016 BradforD-Northampton X-1 5.00 0:0/1:0
DATE  MATCH    TIP ODD FT
19.11.2016 Birmingham- Bristol City X-1 6.00 0:0/1:0
19.11.2016 Reading-Burton 1-1 3.30 2:0/3:0
19.11.2016 Doncaster-Hartlepool X-1 4.80 1:1/2:1
19.11.2016 Yeovil-Colchester X-1 5.80 0:0/2:1


ARCHIVA TICKETS  click on the picture

DATE  MATCH    TIP ODD FT
15.11.2016 Fluminense- Atletico-PR 1/X 15.00 1:0/:1
15.11.2016 AFC Wimbledon- Bury 1-1 4.00 3:0/5:0
15.11.2016 Coventry -Morecambe X-1 4.80 3:0/5:0
15.11.2016 Stockport-Gainsborough 1 1.75 1:0
DATE  MATCH    TIP ODD FT
12.11.2016 Port Vale -Fleetwood Town 1 2.90 2:1
12.11.2016 Tranmere-Chester 1/X 15.00 2:0/2:2
12.11.2016 Woking- North Ferriby 2/X 15.00 0:1/1:1
12.11.2016 Bradford-Rochdale 1 2.00 4:0
DATE  MATCH    TIP ODD FT
08.11.2016 SV Worgl -Saalfelden X-1 5.00 0:0/1:0
08.11.2016 Luton- Millwall X-2 6.00 0:0/1:3
08.11.2016 Newport -AFC Wimbledon 1 3.60 2:0
08.11.2016 Wolves U23- Accrington 1 2.00 4:0
DATE  MATCH    TIP ODD FT
05.11.2016 Chelsea-Everton 1-1 2.40 3:0/5:0
05.11.2016 Sturm Graz -St. Polten 2 9.50 1:2
05.11.2016 Eupen -St. Truiden 1 2.50 4:2
05.11.2016 Rijeka -Hajduk Split X-1 5.00 0:0/2:1
DATE  MATCH    TIP ODD FT
01.11.2016 Padova -Bassano 1-1 4.00 2:0/2:1
01.11.2016 Morton -St. Mirren 1-1 3.80 2:0/3:1
01.11.2016 Saarbrucken -TSV Steinbach X-1 5.00 1:1/2:1
01.11.2016 Stuttgart II- TuS Koblenz X-1 5.20 0:0/3:0
DATE  MATCH    TIP ODD FT
29.10.2016 Aberystwyth-Airbus 1-1 3.60 1:0/3:1
29.10.2016 Leeds -Burton X-1 4.80 0:0/2:0
29.10.2016 Inter Turku -TPS X-1 5.00 0:0/2:0
29.10.2016 Dundee Utd- Falkirk X-1 4.80 0:0/1:0
DATE  MATCH    TIP ODD FT
25.10.2016 Tranmere -North Ferriby X-1 4,50 0:0/1:0
25.10.2016 Bristol City -Hull City 2-2 4.60 0:1/1:2
25.10.2016 Laval-Montpellier 2-2 4.60 0:1/0:2
25.10.2016 Perugia-Carpi 2 3.20 0:2
DATE  MATCH    TIP ODD FT
22.10.2016 Lille-Bastia X-1 4.40 0:0/2;1
22.10.2016 Sampdoria-Genoa X-1 6.50 1:1/2:1
22.10.2016 Lyngby-Sonderjyske 1 2.40 2:0
22.10.2016 Swindon -Walsall 2 3.50 0:2
DATE  MATCH    TIP ODD FT
18.10.2016 Sporting-Dortmund 2 2.25 1:2
18.10.2016 Wattens-Kapfenberg 1/X 15.00 1:0/3:3
18.10.2016 Blackburn-Nottingham 1 2.60 2:1
18.10.2016 Leeds-Wigan X 3.30 1:1
DATE  MATCH    TIP ODD FT
15.10.2016 Groningen -Heerenveen 2 2.80 0:3
15.10.2016 Admira -St. Polten 1/X 15.00 1:0/1:1
15.10.2016 Lierse -St. Gilloise X-1 4.40 0:0/2:1
15.10.2016 Barnsley -Fulham 2 2.60 2:4
DATE  MATCH    TIP ODD FT
11.10.2016 Italy U20 -Switzerland U20 2 4.20 2:4
11.10.2016 Hungary U19- Greece U19 X-1 6.00 0:0/1:0
11.10.2016 AlbinoLeffe-Maceratese 1 2.30 3:2
11.10.2016 Dundalk- Cork City 1 2.25 2:1
DATE  MATCH    TIP ODD FT
08.10.2016 Numancia-Cordoba 1/X 15.00 1;0/1:1
08.10.2016 Rochdale-Southend 1 2.10 3;0
08.10.2016 Aldershot- Solihull X-1 4.40 0:0/2:0
08.10.2016 Yeovil-Wycombe 1 3.20 1:0
DATE  MATCH    TIP ODD FT
04.10.2016 Barrow-Macclesfield X 3.50 1:1
04.10.2016 Torquay- Dagenham & Red. 1-1 5.50 1:0/1:0
04.10.2016 Fleetwood Town- Oldham 2 3.60 0:2
04.10.2016 Stutt. Kickers -Saarbrucken 2-2 4.00 0:1/0:1
DATE  MATCH    TIP ODD FT
01.10.2016 Slavia Prague- Karvina X-1 4.00 0:0/1:0
01.10.2016 Birmingham -Blackburn X-1 5.50 0:0/1:0
01.10.2016 Leeds-Barnsley 1 2.20 2:1
01.10.2016 Wolves-Norwich 2-2 4.00 0:1/1:2
DATE  MATCH    TIP ODD FT
27.09.2016 Rochdale-Bolton X-1 6.00 0:0/1:0
27.09.2016 Accrington-Mansfield X 3.30 1:1
27.09.2016 Grimsby-Newport X-1 5.00 0:0/1:0
27.09.2016 Macclesfield-Wrexham 1 2.25 3:0
DATE  MATCH    TIP ODD FT
24.09.2016 Reading-Huddersfield 1-1 4.20 1:0/1:0
24.09.2016 Rotherham-Cardiff X-2 6.00 0:0/1:2
24.09.2016 Wolves-Brentford X-1 5.50 0:0/3:1
24.09.2016 Bristol Rovers -Port Vale 1 2.30 2:1
DATE  MATCH    TIP ODD FT
20.09.2016 Leeds -Blackburn X-1 5.00 0:0/1:0
20.09.2016 Laval-Sochaux X 3.00 1:1
20.09.2016 Nimes -Troyes X 3.30 2:2
20.09.2016 Sandhausen-Heidenheim X-X 5.00 0:0/0:0
DATE  MATCH    TIP ODD FT
17.09.2016 Lorient-Lille 1 3.80 1:0
17.09.2016 Vitesse -G.A. Eagles X-1 4.00 0:0/2:0
17.09.2016 Bahia-Goias X-1 4.40 1:1/4:2
17.09.2016 Silkeborg -Aarhus 1 4.00 1:0
DATE  MATCH    TIP ODD FT
13.09.2016 Margate-Dartford X-2 5.50 0:0/0:2
13.09.2016 Weston-Hungerford X-2 6.50 0:0/0:1
13.09.2016 QPR -Newcastle Utd 2 2.30 0:6
13.09.2016 Preston-Cardiff 1 2.50 3:0
DATE  MATCH    TIP ODD FT
10.09.2016 Excelsior-Heracles 1-1 4.75 3:0/3;1
10.09.2016 Sturm Graz -Rapid Vienna X 3.40 1:1
10.09.2016 Cercle Brugge KSV -St. Gilloise X-1 5.00 0:0/2:1
10.09.2016 Mouscron-Waregem 2 1:5 2.60
DATE  MATCH    TIP ODD FT
06.09.2016 Mirandes-Elche X 3.00 2:2
06.09.2016 FC 08 Homburg- Stutt. Kickers X-2 6.00 0:0/0:1
06.09.2016 Dartford-Welling X-1 4.80 1:1/2:1
06.09.2016 Boston -Bradford PA 1 2.00 1:0
DATE  MATCH    TIP ODD FT
03.09.2016 Oxford Utd -Rochdale X-1 5.50 0:0/1:0
03.09.2016 Yeovil-Blackpool X-2 6.00 0:0/0;3
03.09.2016 Aldershot-Tranmere X-1 6.50 1:1/3:1
03.09.2016 Hemel-Stortford 1 2.25 3:2
DATE  MATCH    TIP ODD FT
30.08.2016 Northampton-Wycombe 2 4.40 0:3
30.08.2016 Shrewsbury -Cambridge Utd 2 4.30 0;1
30.08.2016 Millwall -West Brom U23 X-1 4.60 0:0/2:0
30.08.2016 Kassel- Stutt. Kickers 1 3.10 2:0
DATE  MATCH    TIP ODD FT
27.08.2016 Wohlen-Wil X-2 5.50 1:1/1:3
27.08.2016 Schaffhausen-Zurich 2-2 3.20 0;1/1:3
27.08.2016 Heerenveen-Zwolle X-1 5.00 0;0/1:0
27.08.2016 St. Truiden -Kortrijk 2 3.00 1;2
DATE  MATCH    TIP ODD FT
23.08.2016 H. Beer Sheva (Isr) -Celtic (Sco) 1 2.40 2:0
23.08.2016 Peterborough-Swansea 2-2 3,60 0:3/1:3
23.08.2016 QPR -Rochdale X-1 4.50 1:1/2:1
23.08.2016 Auxerre -Strasbourg 1 2.70 2:0
DATE  MATCH    TIP ODD FT
20.08.2016 Lille-Dijon X-1 4.00 0:0/1:0
20.08.2016 Nijmegen-Heerenveen X-1 6.50 1:1/2:1
20.08.2016 Mouscron- St. Truiden X-1 5.50 0:0/2:1
20.08.2016 Huddersfield-Barnsley 1 2.00 2:1
DATE  MATCH    TIP ODD FT
16.08.2016 Preston-Derby X-2 6.00 0:0/0:1
16.08.2016 Luton- Newport X-1 4.40 0;0/2:1
16.08.2016 Gateshead-York 1 2.10 6:1
16.08.2016 Wrexham-Solihull X-1 4.80 0:0/1:0
DATE  MATCH    TIP ODD FT
13.08.2016 Airdrieonians-Livingston 2-2 4.00 0:2/2:4
13.08.2016 Moreirense-Ferreira X 3.00 1:1
13.08.2016 Cobh Ramblers -Athlone X-1 4.00 1:1/2:1
13.08.2016 Karlsruher-Bochum X 3.20 1:1
DATE  MATCH    TIP ODD FT
09.08.2016 Birmingham -Oxford Utd X 3.80 0:0
09.08.2016 Doncaster-Nottingham 2-2 3.30 0:1/1:2
09.08.2016 Wolves- Crawley Town X-1 4.00 1:1/2:1
09.08.2016 Barnet-Millwall 2 2.10 0:4
DATE  MATCH    TIP ODD FT
06.08.2016 Nottingham- Burton X-1 4.50 2:2/4:3
06.08.2016 Ilves -Inter Turku X 3.40 0;0
06.08.2016 Vasas-Ujpest 2 4.40 0:1
06.08.2016 Penafiel-Covilha 1 2.80 1;0
DATE  MATCH    TIP ODD FT
30.07.2016 Sporting (Por) -Wolfsburg (Ger) 1-1 4.00 2:0/2:1
30.07.2016 Gimnastic (Esp)- Zaragoza (Esp) X 3.30 0:0
30.07.2016 Young Boys- Lugano 2 7.50 1:2
30.07.2016 Dumbarton-Peterhead X 3.50 3:3
DATE  MATCH    TIP ODD FT
23.07.2016 Munich 1860 (Ger)- SV Werder Bremen (Ger) 1 3.60 2:1
23.07.2016 Hoffenheim (Ger) -Oostende (Bel) 2 4.80 1:2
23.07.2016 Lugano-Luzern 2 2.20 1:2
23.07.2016 East Fife -Peterhead 1 2.40 2:1
DATE  MATCH    TIP ODD FT
16.07.2016 Luzern (Sui) -Schalke (Ger) 1 5.50 4:2
16.07.2016 Niort (Fra) -Angers (Fra) 1 5.00 1:0
16.07.2016 Willem II (Ned)- Graafschap (Ned) 1 2.00 8;1
16.07.2016 Leuven (Bel) -St. Truiden (Bel) 1 2.70 4:1
DATE  MATCH    TIP ODD FT
16.07.2016 Luzern (Sui) -Schalke (Ger) 1 5.50 4:2
16.07.2016 Niort (Fra) -Angers (Fra) 1 5.00 1:0
16.07.2016 Willem II (Ned)- Graafschap (Ned) 1 2.00 8;1
16.07.2016 Leuven (Bel) -St. Truiden (Bel) 1 2.70 4:1
DATE  MATCH    TIP ODD FT
10.07.2016 Flamengo RJ- Atletico-MG 1 2.45 2:0
10.07.2016 Mariehamn-Ilves X-1 4.80 1:1/3:1
10.07.2016 Lillestrom-Stabaek 2 4.00 1:2
10.07.2016 Ostersunds-Jonkopings X-1 4.50 0:0/1:0
DATE  MATCH    TIP ODD FT
02.07.2016 Varbergs-Trelleborgs X 3.50 0:0
02.07.2016 Bray-Wexford 1-1 4.00 2:0/3:0
02.07.2016 Ilves-SJK 1 3.80 2:1
02.07.2016 Bragantino-Parana 2 3.50 0:1
DATE  MATCH    TIP ODD FT
25.06.2016 St. Polten (Aut) -Kapfenberg (Aut) 2 5.50 2:3
25.06.2016 Midtjylland (Den) -Randers FC (Den) X-1 5.00 0:0/1:0
25.06.2016 Byasen-Honefoss 2 2.10 1:2
25.06.2016 Belshina -Naftan 1 2.00 1:0
DATE  MATCH    TIP ODD FT
18.06.2016 VIFK -MuSa 2 2.70 0:3
18.06.2016 Varbergs-GAIS X-1 5.00 0:0/1:0
18.06.2016 Utsiktens-Husqvarna X-1 4.80 0:0/2:1
18.06.2016 Belupo (Cro)- Paks (Hun) 1 2.00 4:0
DATE  MATCH    TIP ODD FT
11.06.2016 Albania -Switzerland 2-2 3.00 0:1/0:1
11.06.2016 Londrina -Vila Nova FC X-1 4.50 0:0/1:0
11.06.2016 SalPa-Aland X 4.00 2:2
11.06.2016 Gimnastic-Osasuna 2 4.00 2:3
DATE  MATCH    TIP ODD FT
04.06.2016 Austria-Netherlands 2 2.80 0:2
04.06.2016 Costa Rica -Paraguay X 3.10 0:0
04.06.2016 Neman-Zhodino 2 2.30 0:3
04.06.2016 Vasco-Goias X-1 4.50 0:0/1:0
DATE  MATCH    TIP ODD FT
28.05.2016 Jonkopings-Sundsvall X 3.30 1:1
28.05.2016 U. Cluj -Satu Mare X 3.40 1:1
28.05.2016 Prato -Lupa Roma X-1 5.00 1:1/3:1
28.05.2016 Rovaniemi-SJK 2 3.10 2:3
DATE  MATCH    TIP ODD FT
21.05.2016 Schwaz-Kufstein 1-1 3.50 1:0/1;0
21.05.2016 Wohlen-Aarau 2-2 3.00 0:1/0:1
21.05.2016 Albacete-Alcorcon X-2 6.00 0:0/0:2
21.05.2016 Cordoba-Elche 1 2.10 3:1
DATE  MATCH    TIP ODD FT
14.05.2016 Caen-Bordeaux 1 2.80 1:0
14.05.2016 Wolfsburg -VfB Stuttgart 1-1 3.40 2:0/3:1
14.05.2016 Ritzing -Austria (Am) X-1 4.80 0:0/2:0
14.05.2016 Midtjylland-Sonderjyske X-1 5.00 1:1/3:2
DATE  MATCH    TIP ODD FT
07.05.2016 Wil-Winterthur 1-1 2.50 1:0/2:1
07.05.2016 Zurich-Basel X-2 5.50 1:1/2:3
07.05.2016 Almeria -Gimnastic 2 3.40 1:2
07.05.2016 Ayr -Peterhead X-1 5.40 1:1/2:1
DATE  MATCH    TIP ODD FT
30.04.2016 Reims-Montpellier 2 3.80 2:3
30.04.2016 Granada CF- Las Palmas X-1 4.00 2:2/3:2
30.04.2016 Admira-Altach 1-1 3.40 1:0/2;1
30.04.2016 Kortrijk -St. Liege X-1 4.40 0:0/1;0
DATE  MATCH    TIP ODD FT
23.04.2016 Inter-Udinese X-1 3.80 1:1/3:1
23.04.2016 Huddersfield-Birmingham X 3.60 1:1
23.04.2016 Bradford -Walsall X-1 5.00 0:0/4:0
23.04.2016 Bristol Rovers- Exeter 1 1.85 3:1
DATE  MATCH    TIP ODD FT
19.04.2016 Groningen-Roda X-1 5.00 0:0/1:0
19.04.2016 Ruch-Legia X 3.80 0:0
19.04.2016 Cracovia-Zaglebie 1 2.50 1:0
19.04.2016 Brescia-Entella 1-1 3.60 1:0/2:0
DATE  MATCH    TIP ODD FT
16.04.2016 Coventry-Millwall 1 3.20 2:1
16.04.2016 Chelmsford-Gosport over 5,5 11.00 6:1
16.04.2016 Chemnitzer -Bremen II 1-1 3.00 1:0/2:1
16.04.2016 Velbert- Schalke II X 3.40 0:0
DATE  MATCH    TIP ODD FT
13.04.2016 Santa Clara- Freamunde 1 3.00 2:1
13.04.2016 Astra -Steaua Bucuresti 2-2 3.80 0:1/0:2
13.04.2016 Celje-Domzale 1 2.20 1:0
13.04.2016 Galatasaray-Fenerbahce X-X 6.00 0:0/0:0
DATE  MATCH    TIP ODD FT
09.04.2016 AC Milan -Juventus X-2 4.80 1:1/1:2
09.04.2016 Ried-Mattersburg X-1 5.00 0:0/1:0
09.04.2016 Bristol City -Sheffield Wed 1 2.70 4:1
09.04.2016 Oldham-Walsall 1 2.80 1:0
DATE  MATCH    TIP ODD FT
05.04.2016 Milton Keynes Dons- Wolves 2 2.90 1:2
05.04.2016 Carlisle-Hartlepool X-1 4.40 0:0/1:0
05.04.2016 Barrow-Braintree 1 2.10 2;0
05.04.2016 Videoton-Debrecen 1-1 3.60 1:0/1;0
DATE  MATCH    TIP ODD FT
02.04.2016 Troyes-Angers X-2 5.50 0:0/0:1
02.04.2016 Blackpool-Southend X-1 5.60 0:0/2:0
02.04.2016 Portsmouth-Carlisle X-1 4.40 0:0/1:0
02.04.2016 Macclesfield-Braintree 1 2.30 3:1
DATE  MATCH    TIP ODD FT
26.03.2016 Berwick -Elgin City 1-1 4.00 1:0/2:0
26.03.2016 Gimnastic-Numancia X-1 4.80 0:0/1:0
26.03.2016 Llandudno -Connahs Q. 2 3.60 1:2
26.03.2016 Molde (Nor)- Hodd (Nor) X-1 4.50 0:0/2:1
DATE  MATCH    TIP ODD FT
23.03.2016 Silkeborg -Vendsyssel FF X 3.30 1:1
23.03.2016 Honka- TPS X 3.10 3:3
23.03.2016 Pirmasens- Freiburg II 1 2.60 3:0
23.03.2016 Padova-Cremonese 1-1 3.75 2:1/2:1
DATE  MATCH    TIP ODD FT
19.03.2016 Watford -Stoke City 2 3.80 1:2
19.03.2016 St Etienne -Montpellier X-1 4.80 0:0/3:0
19.03.2016 Cambuur-Roda 2 2.60 0:1
19.03.2016 Zwolle -Willem II 1-1 3.20 2:1/4:1
DATE  MATCH    TIP ODD FT
15.03.2016 Trabzonspor-Besiktas X-2 5.50 0:0/0:2
15.03.2016 Queen’s Park- Annan 2 4.40 1:3
15.03.2016 Morton -Queen of South 1 2.30 3:2
15.03.2016 Solihull -United of Manchester 2 8.50 1:2
DATE  MATCH    TIP ODD FT
12.03.2016 Ascoli-Avellino 2 2.90 3:4
12.03.2016 Bari -Pro Vercelli over 5,5 20.00 6:2
12.03.2016 Cracovia-Legia 2 2.10 1:2
12.03.2016 Pandurii -FC Viitorul X 3.25 1:1
DATE  MATCH    TIP ODD FT
08.03.2016 Bradford-Burton 1 3.10 2:0
08.03.2016 Bristol Rovers -AFC Wimbledon 1-1 4.00 2:0/2:1
08.03.2016 Dover Ath. -Welling X-1 4.20 1:1/2:1
08.03.2016 Chester-Aldershot 1 2.20 8:2
DATE  MATCH    TIP ODD FT
05.03.2016 Mouscron Peruwelz- Anderlecht X-1 8.00 1:1/2:1
05.03.2016 Bohemians 1905 -Teplice X 3.50 1:1
05.03.2016 Bristol City- Cardiff 2 3.20 0:2
05.03.2016 Newport-Wycombe 1 2.90 1:0
DATE  MATCH    TIP ODD FT
01.03.2016 Ingolstadt -1. FC Koln X 3.10 1:1
01.03.2016 Bury-Peterborough 1 2.60 3:1
01.03.2016 Swindon-Doncaster 1-1 4.00 1:0/2:0
01.03.2016 Barnet-Plymouth 1 3.60 1:0
DATE  MATCH    TIP ODD FT
27.02.2016 Reims-Bordeaux 1 2.40 4;1
27.02.2016 Cambuur-Zwolle X-1 6.50 0:0/1:0
27.02.2016 Gijon- Espanyol 2 3.50 2:3
27.02.2016 Wolves-Derby 1 3.50 2:1
DATE  MATCH    TIP ODD FT
23.02.2016 Milton Keynes Dons- Huddersfield 1-X 15.00 1:0/1;1
23.02.2016 Sheffield Wed- QPR X 3.25 1:1
23.02.2016 Braintree-Halifax 1 2.10 2:0
23.02.2016 Worcester-Stalybridge 1 2.20 5:0
DATE  MATCH    TIP ODD FT
20.02.2016 Lausanne- Wil X-1 6.00 1:1/2:1
20.02.2016 Young Boys- Thun 1-1 2.50 1;0/2:1
20.02.2016 Raith-Livingston 1 2.15 2:0
20.02.2016 Academica- Rio Ave 2 2.50 0:2
DATE  MATCH    TIP ODD FT
16.02.2016 Macclesfield-Torquay 2 5.00 0:1
16.02.2016 Berwick- Annan 1 2.70 3:2
16.02.2016 Kilmarnock-Rangers X-2 4.00 1:1/1:2
16.02.2016 Hartlepool -Notts County 2 2.40 2:3
DATE  MATCH    TIP ODD FT
13.02.2016 Bournemouth- Stoke City 2 4.30 1:3
13.02.2016 Charleroi-Kortrijk X 3.40 1:1
13.02.2016 Blackburn- Hull City 2 2.50 0:2
13.02.2016 Newport-Carlisle 1 2.70 1:0
DATE  MATCH    TIP ODD FT
09.02.2016 Al Ahly -Zamalek X-1 5.50 0:0/2:0
09.02.2016 Kidderminster-Eastleigh 1 4.00 3:2
09.02.2016 Alloa-Morton X 3.60 2:2
09.02.2016 Stirling-Montrose 1 1.70 7:0
DATE  MATCH    TIP ODD FT
06.02.2016 Aston Villa- Norwich 1 2.55 2:0
06.02.2016 Angers -Lyon 2-2 3.75 0:1/0:3
06.02.2016 Fulham-Derby X-X 5.50 1:1/1:1
06.02.2016 Sheffield Utd -Wigan X-2 6.50 0:0/0:2
DATE  MATCH    TIP ODD FT
02.02.2016 Norwich-Tottenham 2-2 3.00 0:2/0:3
02.02.2016 Montpellier-Marseille X-2 6.50 0:0/0:1
02.02.2016 Sassuolo- AS Roma 2-2 4.00 0:1/0:2
02.02.2016 Ipswich-Reading 1 2.50 2:1

4 3

2 1

  

  

  

  

     

           

            

  

Team of Professionals !
Our long term experience in working directly in the betting industry via bookies, has brought us many connections with clubs, their managers, and other officers, ensuring us the right information to help us succeed in our bets. We are willing to share this information with you and help you grow your betting profits.

Choosing the right winners is not easy !

Choosing the right winners is not easy ! We guarantee winnings, and you may wonder how we do that ? Well, its not simple. It involves a lot of work and time, apart from the money spend to receive the information necessary. Many suspect we analyze statistics, maybe the news or the weather report, but they are completely wrong. Our results and archives speak of our success.

We want you to win !

We have a mutual interest and that is winning. Our team gets the best information and we bet, to cover costs we spread these information but the money we bet no one can match. From day one we have focused on getting extraordinary results and our service is build upon that. Join us and get the best from the best.


50 € = 1 week subscription ( 6-8 matches with 2.00 – 5.00 odd )
80 € = 2 weeks subscription (12-15 matches with 2.00 – 5.00 odd )
120 € = 1 month subscription ( 25-33 matches with 2.00 – 5.00 odd )


e-mail:megamatch1x2@gmail.com


Payment Methods: SKRILL, Card, Western Union, Money gram,Netteler

  Archive

DATE  MATCH    TIP ODD FT
01.12.2016 QPR -Wolves 2 2.70 1:2 win
02.12.2016 Viktoria Berlin- Jena X 3.40 2:2 win
03.12.2016  Cardiff-Brighton 3.20  0:0 win
04.12.2016  Port Vale -Hartlepool  1 2.05  4:0 win
05.12.2016 Udinese-Bologna   1 2.00  1:0 win
06.12.2016  Swindon -Luton 3.00  2:3 win
07.12.2016  Lyon -Sevilla  X 3.30  0:0 win
08.12.2016  Salzburg -Schalke 2.50  2:0 win
09.12.2016
10.12.2016
11.12.2016
12.12.2016
13.12.2016
14.12.2016
15.12.2016
16.12.2016
17.12.2016
18.12.2016
19.12.2016
20.12.2016
21.12.2016
22.12.2016
23.12.2016
24.12.2016
25.12.2016
26.12.2016
27.12.2016
28.12.2016
29.12.2016
30.12.2016
31.12.2016
DATE  MATCH    TIP ODD FT
01.11.2016 Horn-Wattens 1 2,20 2:0 win
02.11.2016  Vejle -F. Amager 2.40  4:0 win
03.11.2016  Ajax- Celta Vigo  1 1.90  3:2 win
04.11.2016 Esbjerg-Aalborg  4,00  3:0 win
05.11.2016  Dijon-Guingamp  X 3.00  3:3 win
06.11.2016  Almeria-Cordoba 2.40  3:1 win
07.11.2016  All Boys -Crucero del Norte 2.60  3:2 win
08.11.2016  SV Worgl -Saalfelden  1 2.20  1:0 win
09.11.2016 Hartlepool- Rochdale  2.00  1:2 win
10.11.2016  Brazil-Argentina 2.20  3:0 win
11.11.2016  VfL Osnabruck (Ger) -SV Werder Bremen (Ger) 2.15  1:5 win
12.11.2016  Albania- Israel  2 3.00  0:3 win
13.11.2016  Bulgaria-Belarus 1 2.50  1:0 win
14.11.2016 Malta U19 -Moldova U19  1 3.60 1:0 win
15.11.2016  Bolivia- Paraguay 3.00  1:0 win
16.11.2016 Costa Rica -USA  2.10 4:0 win
17.11.2016 Vejle-Naestved   1 2.40 2:1 win
18.11.2016 Auxerre-Lens   X 3.00 1:1 win
19.11.2016  Admira -AC Wolfsberger  1 2.70  4:1 win
20.11.2016 Waregem-Anderlecht   3.00 3:2 win
21.11.2016  Modena-Pordenone  2 2.50  0:3 win
22.11.2016  Monaco-Tottenham 2.50  2:1 win
23.11.2016  Ostrava -Sigma Olomouc  1 2.30  1:0 win
24.11.2016  Schalke -Nice 1 2.00 2;0 win
25.11.2016 Eibar -Betis  1 2.05 3:1 win
26.11.2016 Southport-Braintree  2.80  4;5 win
27.11.2016 Oostende-Genk  2.20 6:0 win 
28.11.2016  Inter-Fiorentina X 3.40 4:2 lose
29.11.2016  Betis -Dep. La Coruna  1 2.40  1:0 win
30.11.2016 Nancy-Metz   1 2.10  4:0 win
DATE  MATCH    TIP ODD FT
01.10.2016 Ponte Preta- Atletico-MG 2 3.40 1:2 win
02.10.2016  Torino-Fiorentina  1 2.40  2:1 win 
03.10.2016  VfB Stuttgart -Greuther Furth 1-1  3.00  3:0/4:0 win 
04.10.2016  Avai -Goias 2.10  2:0 win
05.10.2016  Ceske Budejovice -Opava  1 2.20  2:1 win
06.10.2016  Turkey-Ukraine  1 2.25  2:2 lose 
07.10.2016  Hungary-Switzerland  2 2.40   2:3 win
08.10.2016  Elche- Gimnastic 2.30  4;4 lose 
09.10.2016  Serbia-Austria  1 2.40  3:2 win 
10.10.2016  Latvia-Hungary  2 2.00  0:2 win 
11.10.2016  Iran -South Korea  1 2.40  1:0 win 
12.10.2016  Real Espana- Olimpia  2.80 3:2 win 
13.10.2016  Chennaiyin- Goa 2.25  2:0 win 
14.10.2016  Kapfenberg -A. Lustenau  2 2.40   0:1 win
15.10.2016  1. FC Koln -Ingolstadt  1 2.00  2:1 win 
16.10.2016  Chievo- AC Milan 2.45  1:3 win 
17.10.2016  Fluminense -Sao Paulo  2 4.00  1:2 win 
18.10.2016  Horn -FAC Wien  1 2.10  2:1 win 
19.10.2016  Penafiel -Gil Vicente  1 2.20  1:0 win 
20.10.2016  Inter -Southampton  1  2.40 1:0 win 
21.10.2016  Strasbourg-Auxerre  1  2.00 2:1 win
22.10.2016  Leicester- Crystal Palace  1 2.00  3:1 win
23.10.2016  Club Brugge KV -Anderlecht  2.10 2:1 win 
24.10.2016  Konyaspor-Fenerbahce  2 2.00  0:1 win
25.10.2016  Macclesfield-Chester  1 2.10  0:0 Lose 
26.10.2016  Inter-Torino  1 2.00  2:1 win 
27.10.2016  Zwolle -Venlo  1  2.10 2:1 win
28.10.2016  Reims -Le Havre 2.20  1:0 win 
29.10.2016 St. Truiden -Charleroi  3.40  2:2 win 
30.10.2016  Southampton-Chelsea  2 2.40  0:2 win
31.10.2016  Stoke City -Swansea  1  2.00 3:1 win
DATE  MATCH    TIP ODD FT
01.09.2016 Zwickau-Magdeburg X 3.40 0:0 win
02.09.2016  Greece U21- Albania U21  1 2.20 2:1 win 
03.09.2016  Stevenage-Hartlepool  1 2.50  6:1 win 
04.09.2016  Malawi- Swaziland 2.20  1:0 win 
05.09.2016  Dep. Pasto -Millonarios  X 3.00  1:1 win 
06.09.2016  Bath City- Oxford City 4.00   1:3 win
07.09.2016  Ternana-Pisa  1 2.60  1:0 win 
08.09.2016  Sindri-Vestri  1 2.25  3:1 win 
09.09.2016  KuPS-Mariehamn  1 2.30  2:1 win 
10.09.2016  Angers -Dijon  1 2.35  3:1 win
11.09.2016 Gijon -Leganes   1 2.50   2:1 win
12.09.2016  Aarhus-Nordsjaelland  X 3.80  3:1 lose 
13.09.2016 Dyn. Kiev- Napoli   2 2.50  1:2 win 
14.09.2016  Trakai-Suduva  1 2.00  2:0 win 
15.09.2016  Sao Paulo- Cruzeiro 2.00  1:0 win 
16.09.2016 Betis -Granada CF   3.80 2:2 win 
17.09.2016 Nancy-Nantes  X 3.00  1:1 win 
18.09.2016  Inter -Juventus  1 4.00   2:1 win
19.09.2016  Maccabi Haifa- H. Beer Sheva  1   3.00  2:1 win
20.09.2016 Lille-Toulouse   1 2.20  1:2 lose 
21.09.2016 Schalke -1. FC Koln   1 2.20  1:3 lose 
22.09.2016  Goteborg-Orebro 1-1  2.50  1:0/3:2 win 
23.09.2016  No have sure match today      
24.09.2016 Arsenal-Chelsea  2.50  3:0 win 
25.09.2016  Atromitos -Asteras Tripolis 1 2.50  1:0 win 
26.09.2016  Perugia-Spal  2.25 1:0 win 
27.09.2016  Bristol City- Leeds  1 2.10   1:0 win
28.09.2016  Newcastle Utd -Norwich 2.10  4:3 win 
29.09.2016  Gabala -Mainz  2  1.90 2:3 win 
30.09.2016  Zwolle- Den Haag 2.25  2:1 win 
DATE  MATCH    TIP ODD FT
01.08.2016 Flora-Levadia 1 2.60 6:1 win
02.08.2016 Llanelli (Wal)- Port Talbot (Wal) 1 2.30 3:1 win
03.08.2016 FC Steaua Bucuresti (Rou)- Sparta Prague (Cze)  2.55  2:0 win 
04.08.2016 1. FC Koln (Ger)- Eibar (Esp)  2.30  2:0 win 
05.08.2016  Wexford -Sligo Rovers 2.10  0:5 win 
06.08.2016  Ipswich-Barnsley 2.10  4:2 win 
07.08.2016  Leicester- Manchester United  1 4.50  1:2 lose 
08.08.2016  Jong PSV -Den Bosch1  1 2.40  5:4 win 
09.08.2016  Southport-Gateshead  2  2.40 0:3 win 
10.08.2016  Hajduk Split -D. Zagreb 2.40  0;4 win 
11.08.2016  Wil-Aarau  X  3.50 0:0 win 
12.08.2016  Horn- BW Linz  2.25 2:1 win 
13.08.2016  Crystal Palace -West Brom  1 2.20  0:1 lose 
14.08.2016 Arsenal -Liverpool  2.70  3:4 lose 
15.08.2016  no match
16.08.2016  Kapfenberg-Wattens  1 2.00  3;0 win 
17.08.2016 FC Porto (Por) -AS Roma (Ita)   X 3.30   1:1 win
18.08.2016  Goteborg (Swe) -Qarabag (Aze)  2.50 1:0 win 
19.08.2016  Horsens -Lyngby  1  2.70 2:1 win 
20.08.2016  Leicester-Arsenal 3.50  1:1 win 
21.08.2016  Utrecht -AZ Alkmaar  2 2.70  1:2 win 
22.08.2016  KTP -JJK Jyvaskyla 3.00  5:0 win 
23.08.2016  Monaco (Fra) -Villarreal (Esp) 2.70  1:0 win 
24.08.2016  Fulham -Middlesbrough  3.60 1:1 win 
25.08.2016  Brondby (Den) -Panathinaikos (Gre) 3.30  1:1 win 
26.08.2016 Betis -Dep. La Coruna   X  3.30 0:0 win 
27.08.2016  Montpellier-Rennes  X 3.20 1:1 win 
28.08.2016  West Brom -Middlesbrough  3,20 0:0 win 
29.08.2016 Sutton- Dagenham & Red.  2.50  1:0 win 
30.08.2016  Mansfield-Doncaster  2 2.50  0:2 win 
31.08.2016  Varbergs-Orgryte 2.50   1:0 win
DATE  MATCH    TIP ODD FT
01.07.2016 Cabinteely -Athlone 1 2.50 5:1 win
02.07.2016 Fluminense-Coritiba X 3.40 0:0 win
03.07.2016 Ponte Preta- Sao Paulo 1 2.20 1:0 win
04.07.2016  Djurgarden (Swe)- Groningen (Ned)  2 2.50  0:1 win 
05.07.2016 Cambuur (Ned) -FC Emmen (Ned)   2.00 1:0 win 
06.07.2016 Portugal -Wales  2.20  2:0 win 
07.07.2016 Austria Vienna (Aut) -Munich 1860 (Ger)  2.25   2:0 win
08.07.2016 Start-Bodo/Glimt   2.70 1:4 win 
09.07.2016 Tromso-Haugesund   X  3.50 2:2 win 
10.07.2016 Infonet-Flora   1 2.30  4:3 win 
11.07.2016  Spielberg (Ger) -FC Nottingen (Ger)  2  2.40 1:6 win 
12.07.2016 Nijmegen (Ned) -Almere City (Ned)  2.00  3:1 win 
13.07.2016 O. Ljubljana (Slo)- Trencin (Svk) 2.20  3:4 win 
14.07.2016  Videoton (Hun) -Cukaricki (Srb)  1 2.10  2:0 win 
15.07.2016 B. Monchengladbach -Zurich  4.00   1:2 lose
16.07.2016  Botafogo RJ- Flamengo RJ  X 3.40  3:3 win 
17.07.2016 Cracovia- Piast Gliwice   2.15 5:1 win 
18.07.2016 Gefle-Kalmar  4,20  4:2 win 
19.07.2016 Ural (Rus) -Amkar (Rus)   2 2.40  0:2 win 
20.07.2016 U. Madeira (Por) -Vizela (Por)  2.10   1:0 win
21.07.2016 PSV (Ned) -FC Porto (Por)   1 2.50  3:0 win 
22.07.2016 Pandurii -CS U. Craiova   2.45 2:1 win 
23.07.2016  Terek Grozni (Rus)- Bologna (Ita) 2.20  1:0 win 
24.07.2016  Lyngby-Odense 3.30  2:2 win 
25.07.2016  Konyaspor (Tur)- Cordoba (Esp) 3.50  1;2 win 
26.07.2016 Queen’s Park- Airdrieonians   1  2.50 3:3 lose 
27.07.2016 Vizela (Por) -Vilaverdense (Por)   1 2.10  2:0 win 
28.07.2016 Shkendija (Mac)- Mlada Boleslav (Cze)   1 3.20  2:0 win 
29.07.2016 A. Lustenau- Horn 2.10  2:1 win 
30.07.2016 East Stirlingshire -Annan  2.30  0:2 win 
31.07.2016  SV Werder Bremen II- Lotte  2 2.80   0:3 win
DATE  MATCH    TIP ODD FT
01.06.2016  Pescara- Novara 2.30  4:2 win 
02.06.2016 Cyprus U21 -Bulgaria U21  2.80  3:0 win 
03.06.2016  Mauritania -Cameroon  2 2.00   0:1 win
04.06.2016  Lanciano-Salernitana  3.00 1:4 win 
05.06.2016 Jamaica- Venezuela  2.50  0:1 win 
06.06.2016  Bulgaria U21 -Norway U21 2.00   0:2 win
07.06.2016 Canada-Uzbekistan  3.10   2:1 win
08.06.2016  Grindavik-Fylkir 2.50   0:2 win
09.06.2016  Enppi -El Gaish 2.10   2:1 win
10.06.2016  Spartaks-Ventspils 4.00  5:1 win 
11.06.2016  USA- Paraguay  1 2.00  1:0 win 
12.06.2016 Ilves- VPS  2.15  1:0 win 
13.06.2016 Ireland-Sweden  3.10   1:1 win
14.06.2016 Crucero del Norte -Nueva Chicago  2.00  1:0 win 
15.06.2016 Romania-Switzerland   2 2.40  1:1 lose 
16.06.2016 Valur – FH   2  2.40 0:1 win 
17.06.2016 Italy- Sweden  1.90  1:0 win 
18.06.2016 Varbergs- GAIS  2.40  1:0 win 
19.06.2016 Astana-Irtysh  3.00  1:1 win 
20.06.2016  Landskrona -Prespa Birlik  1.90 3:0 win 
21.06.2016 Croatia-Spain   2 2.00  2:1 lose 
22.06.2016 Torns- Malmo IFK  2.10  3:0 win 
23.06.2016 Husqvarna-Tvaakers  1.70   2:0 win
24.06.2016 Suduva- Atlantas   X 3.20  3:3 win 
25.06.2016 Furth II (Ger) -Stutt. Kickers (Ger)  3.80  1:1 win 
26.06.2016 Santos -Sao Paulo   1 2.30  3:0 win 
27.06.2016  O. Ljubljana (Slo)- Terek Grozni (Rus) 3.20  0:0 win 
28.06.2016  Esbjerg (Den)- Silkeborg (Den) 2.20  2:1 win 
29.06.2016 Bray (Irl)- Falkirk (Sco)   6.50 1;0 win 
30.06.2016  Slavia Sofia (Bul)- Zaglebie (Pol) 3.80  1:0 win 
DATE  MATCH    TIP ODD FT
01.05.2016  Angers-Marseille  2 2.50   0:1 win
02.05.2016  Maastricht-Volendam  2.40 2:1 win
03.05.2016 Clyde- Elgin City  1 2.30  3:1 win 
04.05.2016  Dover Ath. -Forest Green 2.90  0:1 win 
05.05.2016 SJK -Inter Turku  2.10   1:0 win
06.05.2016 Jena-Babelsberg  3.00  0:2 win 
07.05.2016 Lokeren -KV Mechelen  2.20  5:1 win 
08.05.2016  Manchester City- Arsenal  3.50 2:2 win 
09.05.2016 Sandefjord- Mjondalen  2.00  2:0 win 
10.05.2016  Clyde- Queen’s Park 2.80  1:3 win 
11.05.2016  Ried -Austria Vienna  2 2.10  0:5 win 
12.05.2016 Aalborg- FC Copenhagen   1  3.00 0:2 lose 
13.05.2016 Almere City -Willem II   2.30 0:1 win 
14.05.2016  Caen-Bordeaux 2.80  1:0 win 
15.05.2016 Lazio- Fiorentina   4.00 2:4 win 
16.05.2016 Viborg -Randers FC   2 2.40   2:3 win
17.05.2016  Aarhus-Aalborg  1 3.30  2:0 win 
18.05.2016 Apollon -Omonia   1 2.50  2:1 win 
19.05.2016  Heracles-Utrecht  1  2.80 1:1 lose 
20.05.2016 Neusiedl-Schwechat   1 2.10  4:0 win 
21.05.2016 Salzburg (Am)- Dornbirn   1 2.20  4:1 win 
22.04.2016 Willem II -Breda  2.30  3:1 win 
23.05.2016  Alanyaspor- Balikesirspor  1 2.00  1;0 win 
24.05.2016 Mallorca-Elche  2.10   2;1 win
25.05.2016 Wolfsburg II- Regensburg   1 2.30  1:0 win 
26.05.2016  Aarhus-Odense  1 2.20  2:1 win 
27.05.2016  Nitra -VSS Kosice 4.40  1:0 win 
28.05.2016  Roskilde-Skive  2.40 4:3 win 
29.05.2016 Barnsley -Millwall  2.60  3:1 win 
30.05.2016 Fylkir-Fjolnir  3.60   2:2 win
31.05.2016 Latvia U21 -Lithuania U21  2.20  2:0 win 
DATE  MATCH    TIP ODD FT
01.04.2016 QPR-Middlesbrough 2 2.30 2:3
02.04.2016 Carpi-Sassuolo 2 2.40 1:3
03.04.2016 Anderlecht -Genk 1 2.00 1:0
04.04.2016 Mjondalen-Kristiansund 1 2.10 3:1
05.04.2016 Belupo -Rijeka 1 4.50 3:0
06.04.2016 Jena -BFC Dynamo 1 2.10 2:1
07.04.2016  Ostersunds-AIK 2.70  0:2
08.04.2016  Niort-Lens  2 2.80 0;1
09.04.2016  Bury-Doncaster 2.65  1:0
10.04.2016  Torino-Atalanta  1 2.00  2:1
11.04.2016 Nordsjaelland-Esbjerg  2.20   0:0
12.04.2016 Manchester City -Paris SG  2.90  1:0
13.04.2016  Crystal Palace- Everton 3.50  0:0
14.04.2016 Shakhtar- Braga   X 3,80  4:0
15.04.2016  Hannover- B. Monchengladbach 5.00  2:0
16.04.2016 Newcastle Utd- Swansea   1 2.50  3:0
17.04.2016 Sampdoria -AC Milan  2.20  0:1 
18.04.2016 Esbjerg-Midtjylland   2 2.20  0:2 
19.04.2016 Reading- Hull City   2 2.10  1:2 
20.04.2016 Genoa-Inter   4.20 1:0 
21.04.2016 Granada CF- Levante  2.10  5:1 
22.04.2016 Metz- Red Star   1 2.00  2:0 
23.04.2016  Derby – Sheffield Wed 2.15   1:1
24.04.2016 Lyngby-Horsens   1 2.50  0:0 
25.04.2016  NO MATCH      
26.04.2016  St. Polten -A. Lustenau 1.90  3:0 
27.04.2016 Jonkopings-Falkenbergs  3.80  1:1 
28.04.2016 HIFK-KuPS  2.10  3:2 
29.04.2016  Kapfenberg-Neustadt 2.10   4:2
30.04.2016 Halifax-Macclesfield   1  2.00 1:1 
DATE  MATCH    TIP ODD FT
01.02.2016  Cremonese-Alessandria  1 2.50  2:1 
02.02.2016  Oxford Utd- Millwall  2 2.40  0;1 
03.02.2016  St. Gilloise- Lierse  1 2.50  3:0 
04.02.2016  Rovaniemi-KuPS  1 2.00  2:0 
05.02.2016  Boulogne-Amiens 2.30  4:0 
06.02.2016 Lincoln City -Eastleigh  2.75  3:0 
07.02.2016  Iraklis-Giannina  1 2.10  1:0 
08.02.2016  Arminia Bielefeld- Duisburg 1-1  2.90  2:1/2:1 
09.02.2016  Alloa-Morton  3.60 2:2 
10.02.2016  Cremonese- Alessandria 2.50  2:1 
11.02.2016  SC Goa -Salgaocar SC  1 2.00  1:1 
12.02.2016  Creteil-Tours  X 3.00  2:2 
13.02.2016  York -Notts County  1 3.40  2:1 
14.02.2016  Braunschweig -Arminia Bielefeld 2.05  1:0 
15.02.2016  Volendam-Helmond  1 2.15  2:1 
16.02.2016  Benfica -Zenit Petersburg  1 2.20  1:0 
17.02.2016  Bradford PA- United of Manchester  1  2.10 3:1 
18.02.2016  Villarreal-Napoli  3.20 1:0 
19.02.2016  Laval -Dijon  3.30 2:2 
20.02.2016 Ostrava-Zlin  4.00  3:0 
21.02.2016  Tondela-Maritimo 2.40  3:4 
22.02.2016  Dyn. Kiev -Manchester City  2 2.30  1:3 
23.02.2016  Ath Bilbao- Marseille  3.40 1:1  
24.02.2016  Dyn. Kiev -Manchester City 2.30  1:3 
25.02.2016 Rapid Vienna- Valencia  3.00 0:4 
26.02.2016   Creteil-Laval   3.00 0:0 
27.02.2016 Southampton-Chelsea  2.50  1:2 
28.02.2016  Lyon- Paris SG  4.50 2:1 
29.02.2016
DATE  MATCH    TIP ODD FT
01.01.2016 Bangor-Llandudno 2.40  0:3 
02.01.2016 West Brom -Stoke City 2.50  2:1 
03.01.2016  Famalicao-Penafiel  X 3.10  1:1 
04.01.2016  Maccabi Haifa- H. Beer Sheva  X 3.30  1:1 
05.01.2016 Zamalek -El Daklyeh  2.00  2:0 
06.01.2016 Chievo -AS Roma  3.25  3:3 
07.01.2016 Giannina- Panathinaikos  2.10  1:2 
08.01.2016  CA Bastia- Dunkerque 2.25  3:2 
09.01.2016  Levante- Rayo Vallecano  1 2.40  2:1 
10.01.2016 Real Sociedad -Valencia  2.15   2:1
11.01.2016 Metz -Sochaux   2.50 1:0 
12.01.2016  Milton Keynes Dons- Burnley 2.30  0:5 
13.01.2016 Weston -Wealdstone  2.40  3:2 
14.01.2016 Granada CF- Valencia  2.90  0:3 
15.01.2016 Twente-Heracles   1 2.50  4:0 
16.01.2016 Bastia- Montpellier  3.20  1:0 
17.01.2016  Lokeren -St. Liege  2 2.00  0:2 
18.01.2016  Valenciennes-Metz  2 2.40  2:1 
19.01.2016  Napoli -Inter  2 4.50  0:2 
20.01.2016  Concarneau-Troyes  2 2.70  1:3 
21.01.2016  Zapresic (Cro)- Belupo (Cro)  2 2.75   1:3
22.01.2016  Paris FC -Sochaux  X  3.00 0:0 
23.01.2016  Ingolstadt-Mainz 2.30  1:0 
24.01.2016 Monaco-Toulouse  1.90  4:0 
25.01.2016  Clermont -Le Havre  1 2.20  2:1 
26.01.2016  Lille -Bordeaux 2.20  5:1 
27.01.2016  Tuzlaspor-Giresunspor  1 2.00  2:0 
28.01.2016  Al Wasl -Al Nasr  1 2.50  3:2 
29.01.2016  Lahti -Inter Turku  1 2.10  2:1 
30.01.2016 Leuven- St. Liege  2.15  0:2 
31.01.2016 Academico Viseu- Santa Clara 1 2.00 1:0

(archiva july click) /( archiva juny click)(archiva december click )/(archiva november click)

archiva september click )/ (archiva august click)/(archiva octomber click)

(archiva may click) / (archiva April click)

(archiva March click / (archiva February click)

(archiva January click)

best fixed subscrhttp://free-fixed-games.com/baner.gifibtion  

  

  Image and video hosting by TinyPic

  

  

FREE TIP 10.12.2016

  

  

  

  baner

Fleetwood Town- Walsall  1  @ 2.00

  

 

  

Histats





My Banner

Contact US !

megamatch1x2@gmail.com

Bookies

Bookies

mybet£25 Free Bet
Join BetVernons now for a £25 free bet! Fro all new customers.
Read  mybetExclusive 100% bonus!
Claim your €100 first deposit bonus and start betting on your favourite sports! Exclusive offer for IAMBETTOR users!
Read  £20 Risk Free Bet!
Sign up with Unibet and get your 20GBP deposit bonus now!
Read  10betYour Winning Kick-off!
Get an extra 50% up to €200 on your first deposit. Bonus code: FD100
Read our  bet365Double your deposit!
Join the world's leading online betting group and receive 100% deposit bonus!
Read our  SBOBETGet EXTRA on your first deposit!
Join SBOBET now and get your 175EUR deposit bonus! Bonus code: DEPBON9
Read  Pinnacle SportsPinnacleSports.com
Are you looking for the best odds with the highest betting limits? You just found it!
Read

WHAT OUR CLIENTS SAY

WHAT OUR CLIENTS SAY

banner_what_our_clients_say

Your service is definitely the right choice for anyone seeking for real profitable betting tips. I picked up a grand total of 12k on your last picks, again great job and I will be a client for a long time. Keep up the good work!

JIng, Korea

Just wanted to thank you for this weeks best tips. You did an excellent job. It feels great to be with the winners. I'm really glad.
Eduard, Singapore
You run a very fair and honest company, which is why I will continue to purchase your betting tips. No other site is close to as good as you guys are. Thanks.
Louis, France
Let me wrap this up in 2 words: VERY POWERFULL !. I was referred by a friend and boy am i happy i signed up. This guy offers me a very niceEXTRA INCOMEeach month.
Angelo, Italy
You are very good ! I can see that there is a brilliant mind behind these tips. You always get the job done and delivery daily wins. Thank you for this service !
Alexander, Denmark
I'm kind of a newbie in the betting world, but i really like this kind of service beacause it is unique. Very well analyzed matches, the risks are very low and the odds are actually very good.
Irlandy, Indonesia
Became a member a week ago and i really got what i paid for. A nice steady stream of very safe bets almost 0 risks that offers me a nice and steady income of cash. Thanks Guys !
Zul, Malaysia
I really enjoy this service because it offers unique tips at very low risk. Odds are quite good considering that these are very safe tips and i'm happy with that. Wish you all the best, byeee.
Juan, Spain
A genuine service. I've been with them for a while now and they have always provided me with nice sure tips that always win. That is very good for me, cause it gives great morale knowing that every day you have at least one prediction that always wins.
Edwin, Uganda
Very solid service guys !! Been a member for 2 weeks now and all i can say is that i'll probably be a member for life :D Keep the solid tips comin'.
Chris, Australia
I have to say that this is the first service of it's kind. I have been betting for a lot of time and was really looking for a service like this. Medium odds and very safe tips. All the best !
Ahmet, Turkey
 I never thought possible that was someone that can win so much money from betting. If i already won €1300, i am curious how much money you are winning with these tips. Hmm…you must be very happy. Cheers!.
Aleksandar, Russia
 I was skeptical in the beginning but after 2 months of using Tipster-Win concept and the tips, i've made 9 times my initial investment. Over €2,000 i've won. Thank you !
Jorgos, Greece
 I think you guys have some inside information because is not possible to pick Levante to win against Real Madrid. That happens once in 10 years. Nevermind, i like you, because i win :)
Patrick, France

mega.match1x2

  • out Us

  •  

    Our team provide you secure, profitable and fixed matches. We offer you guaranteed profit and satisfaction. We provide to our subscribers high quality odd with reliable and high percentage of accuracy. We provide information for those who want to profit from betting, if you are interested for making profit contact us. We sell expensive information for not that huge amount of money, we also profit by betting on them.

  • WE WANT YOU TO WIN

     

    Maybe this sentence is scaring you, but let us explain you why we want you to win. If you are winning, you are making money. If you are making money, you will keep paying for our membership month after month and this is how we make money. Also, you will tell your friends, and you will write good reviews about us. Do you understand why it is so important for you to win? It's simple.

  • STAY BACK AND RELAX

     

    We take care of all the analysis, bookie traps, head-2-head analysis, statistics, fixtures, weather condition, club deals etc. We have professional tools also that help us improve our decisions. We also have partners that work inside betting agencies, this being a big advantage compared to the one that the casual bettor has.

  • YOU CAN’T MISS ANY GAMES

     

    We always send the games on time. Every day you will receive the tips in your email 24 hours before the game starts. You will have plenty of time to bet on these games even if you are at work, at home or on the road with your smartphone or tablet.